Tuolumne, CA (95379)

12:54 AM PDT on October 26, 2014 (GMT -0700)
Sonora Meadows | Change Station
CLOSE
Current Station
Personal Weather Station
Location: Sonora, CA
Elevation: 2850 ft
Nearby Weather Stations

Elev 2850 ft 38.01 °N, 120.27 °W | Updated 6 seconds ago

Clear
Clear
45.3 °F
Feels Like 45 °F
N
0.0
Wind Variable Wind from ENE
Gusts 1.0 mph

Today
High -- | Low -- °F
--% Chance of Precip.
Yesterday
High -- | Low -- °F
Precip. -- in
7:20 AM 6:08 PM
Waxing Crescent, 6% visible
Pressure 30.14 in
Visibility 10.0 miles
Clouds Clear
Windchill 45 °F
Dew Point 44 °F
Humidity 94%
Rainfall 0.00 in
Snow Depth Not available.
UV 0 out of 12
Pollen 2.40 out of 12
Ozone Good
Flu Activity Sporadic
METAR KO22 260735Z AUTO 00000KT 10SM CLR 05/05 A3014 RMK AO1

More Conditions Fewer Conditions

Pressure 30.14 in
Visibility 10.0 miles
Clouds Clear
Windchill 45 °F
Dew Point 44 °F
Humidity 94%
Rainfall 0.00 in
Snow Depth Not available.
UV 0 out of 12
Pollen 2.40 out of 12
Ozone Good
Flu Activity Sporadic
METAR KO22 260735Z AUTO 00000KT 10SM CLR 05/05 A3014 RMK AO1

More Conditions Fewer Conditions

10-Day Weather Forecast

Almanac

Astronomy

Oct. 26, 2014 Rise Set
Actual Time 7:20 AM PDT 6:08 PM PDT
Civil Twilight 6:53 AM PDT 6:35 PM PDT
Nautical Twilight 6:22 AM PDT 7:06 PM PDT
Astronomical Twilight 5:52 AM PDT 7:37 PM PDT
Moon 10:01 AM PDT 8:26 PM PDT
Length of Visible Light 11h 42m
Length of Day
10h 48m
Tomorrow will be 2m 14s shorter.
Waxing Crescent, 6% of the Moon is Illuminated
Today
Waxing Crescent
Oct 30
First Quarter
Nov 6
Full
Nov 14
Last Quarter
Nov 22
New

Today's Extremes

State Highs State Lows

Community

WunderPhotos

Upload Photos

1,765,115 photos uploaded!

Nearby

Air Quality

  Air Quality AQ Index Pollutant
Yesterday Moderate
OZONE
Current Good
OZONE
Saturday Good
OZONE
Sunday Good
OZONE
Monday Good
OZONE
Tuesday Good
OZONE
Wednesday Good
OZONE
Thursday Good
OZONE

Snow Depth

Station Depth Elevation
Leavitt Lake 2 in 9400 ft
Sonora Pass 1 in 8800 ft
Leavitt Meadows 1 in 7200 ft
Ebbetts Pass 2 in 8700 ft
Blue Lakes 0 in 8000 ft

Earthquake Activity

City Distance Mag. Time & Date
Antioch, California 85 miles 2.7 6:42 AM PDT
2014-10-25
Coalinga, California 138 miles 2.5 11:01 PM PDT
2014-10-24
Minimum magnitude displayed is 2.5.

Coastal Water Temperatures

Place Temperature
No Stations Reporting

Nearby Weather Stations